sensor_id;sensor_type;location;lat;lon;timestamp;P1;durP1;ratioP1;P2;durP2;ratioP2
51314;SDS011;58484;51.980;-0.234;2022-08-19T00:00:03;1.25;;;0.60;;
51314;SDS011;58484;51.980;-0.234;2022-08-19T00:02:33;1.05;;;0.60;;
51314;SDS011;58484;51.980;-0.234;2022-08-19T00:04:59;0.65;;;0.65;;
51314;SDS011;58484;51.980;-0.234;2022-08-19T00:07:25;1.98;;;0.80;;
51314;SDS011;58484;51.980;-0.234;2022-08-19T00:09:50;0.50;;;0.50;;
51314;SDS011;58484;51.980;-0.234;2022-08-19T00:12:16;1.02;;;0.60;;
51314;SDS011;58484;51.980;-0.234;2022-08-19T00:14:42;1.15;;;0.60;;
51314;SDS011;58484;51.980;-0.234;2022-08-19T00:17:08;0.82;;;0.70;;
51314;SDS011;58484;51.980;-0.234;2022-08-19T00:19:34;2.40;;;0.70;;
51314;SDS011;58484;51.980;-0.234;2022-08-19T00:22:01;0.93;;;0.70;;
51314;SDS011;58484;51.980;-0.234;2022-08-19T00:24:27;0.75;;;0.75;;
51314;SDS011;58484;51.980;-0.234;2022-08-19T00:26:54;1.35;;;0.75;;
51314;SDS011;58484;51.980;-0.234;2022-08-19T00:29:22;0.95;;;0.60;;
51314;SDS011;58484;51.980;-0.234;2022-08-19T00:31:49;1.75;;;0.60;;
51314;SDS011;58484;51.980;-0.234;2022-08-19T00:34:20;2.28;;;0.60;;
51314;SDS011;58484;51.980;-0.234;2022-08-19T00:36:47;0.98;;;0.55;;
51314;SDS011;58484;51.980;-0.234;2022-08-19T00:39:13;0.60;;;0.60;;
51314;SDS011;58484;51.980;-0.234;2022-08-19T00:41:41;1.58;;;0.60;;
51314;SDS011;58484;51.980;-0.234;2022-08-19T00:44:10;0.40;;;0.40;;
51314;SDS011;58484;51.980;-0.234;2022-08-19T00:46:39;1.13;;;0.68;;
51314;SDS011;58484;51.980;-0.234;2022-08-19T00:49:10;0.82;;;0.50;;
51314;SDS011;58484;51.980;-0.234;2022-08-19T00:51:40;1.45;;;0.80;;
51314;SDS011;58484;51.980;-0.234;2022-08-19T00:54:08;1.17;;;0.90;;
51314;SDS011;58484;51.980;-0.234;2022-08-19T00:56:34;1.10;;;0.77;;
51314;SDS011;58484;51.980;-0.234;2022-08-19T00:59:02;1.08;;;0.60;;
51314;SDS011;58484;51.980;-0.234;2022-08-19T01:01:33;1.20;;;1.00;;
51314;SDS011;58484;51.980;-0.234;2022-08-19T01:03:59;1.50;;;1.20;;
51314;SDS011;58484;51.980;-0.234;2022-08-19T01:06:25;0.73;;;0.70;;
51314;SDS011;58484;51.980;-0.234;2022-08-19T01:08:52;0.82;;;0.70;;
51314;SDS011;58484;51.980;-0.234;2022-08-19T01:11:20;1.80;;;0.75;;
51314;SDS011;58484;51.980;-0.234;2022-08-19T01:13:46;1.02;;;0.63;;
51314;SDS011;58484;51.980;-0.234;2022-08-19T01:16:12;1.02;;;0.60;;
51314;SDS011;58484;51.980;-0.234;2022-08-19T01:18:40;1.58;;;0.80;;
51314;SDS011;58484;51.980;-0.234;2022-08-19T01:21:09;0.90;;;0.65;;
51314;SDS011;58484;51.980;-0.234;2022-08-19T01:23:41;1.30;;;0.80;;
51314;SDS011;58484;51.980;-0.234;2022-08-19T01:26:09;0.70;;;0.70;;
51314;SDS011;58484;51.980;-0.234;2022-08-19T01:28:41;0.90;;;0.80;;
51314;SDS011;58484;51.980;-0.234;2022-08-19T01:31:10;0.75;;;0.57;;
51314;SDS011;58484;51.980;-0.234;2022-08-19T01:33:39;2.97;;;0.80;;
51314;SDS011;58484;51.980;-0.234;2022-08-19T01:36:06;1.80;;;0.70;;
51314;SDS011;58484;51.980;-0.234;2022-08-19T01:38:36;1.15;;;0.68;;
51314;SDS011;58484;51.980;-0.234;2022-08-19T01:41:04;1.38;;;0.88;;
51314;SDS011;58484;51.980;-0.234;2022-08-19T01:43:31;0.75;;;0.70;;
51314;SDS011;58484;51.980;-0.234;2022-08-19T01:45:57;1.13;;;0.68;;
51314;SDS011;58484;51.980;-0.234;2022-08-19T01:48:23;1.02;;;0.82;;
51314;SDS011;58484;51.980;-0.234;2022-08-19T01:50:49;1.42;;;0.60;;
51314;SDS011;58484;51.980;-0.234;2022-08-19T01:53:15;0.63;;;0.40;;
51314;SDS011;58484;51.980;-0.234;2022-08-19T01:55:41;0.50;;;0.50;;
51314;SDS011;58484;51.980;-0.234;2022-08-19T01:58:10;0.93;;;0.60;;
51314;SDS011;58484;51.980;-0.234;2022-08-19T02:00:40;1.83;;;0.55;;
51314;SDS011;58484;51.980;-0.234;2022-08-19T02:03:07;1.60;;;0.70;;
51314;SDS011;58484;51.980;-0.234;2022-08-19T02:05:34;1.15;;;0.60;;
51314;SDS011;58484;51.980;-0.234;2022-08-19T02:08:00;0.50;;;0.50;;
51314;SDS011;58484;51.980;-0.234;2022-08-19T02:10:26;0.68;;;0.55;;
51314;SDS011;58484;51.980;-0.234;2022-08-19T02:12:52;1.85;;;0.65;;
51314;SDS011;58484;51.980;-0.234;2022-08-19T02:15:18;1.50;;;0.80;;
51314;SDS011;58484;51.980;-0.234;2022-08-19T02:17:44;1.45;;;0.68;;
51314;SDS011;58484;51.980;-0.234;2022-08-19T02:20:12;1.23;;;1.10;;
51314;SDS011;58484;51.980;-0.234;2022-08-19T02:22:38;1.13;;;0.60;;
51314;SDS011;58484;51.980;-0.234;2022-08-19T02:25:06;0.82;;;0.70;;
51314;SDS011;58484;51.980;-0.234;2022-08-19T02:27:33;1.40;;;0.68;;
51314;SDS011;58484;51.980;-0.234;2022-08-19T02:29:59;1.15;;;0.80;;
51314;SDS011;58484;51.980;-0.234;2022-08-19T02:32:25;1.23;;;0.80;;
51314;SDS011;58484;51.980;-0.234;2022-08-19T02:34:52;1.17;;;0.68;;
51314;SDS011;58484;51.980;-0.234;2022-08-19T02:37:18;1.25;;;0.80;;
51314;SDS011;58484;51.980;-0.234;2022-08-19T02:40:04;0.95;;;0.60;;
51314;SDS011;58484;51.980;-0.234;2022-08-19T02:42:30;4.63;;;0.80;;
51314;SDS011;58484;51.980;-0.234;2022-08-19T02:44:56;0.70;;;0.68;;
51314;SDS011;58484;51.980;-0.234;2022-08-19T02:47:22;1.85;;;0.80;;
51314;SDS011;58484;51.980;-0.234;2022-08-19T02:49:48;1.20;;;0.85;;
51314;SDS011;58484;51.980;-0.234;2022-08-19T02:52:15;2.42;;;1.10;;
51314;SDS011;58484;51.980;-0.234;2022-08-19T02:54:41;1.60;;;0.90;;
51314;SDS011;58484;51.980;-0.234;2022-08-19T02:57:07;0.82;;;0.60;;
51314;SDS011;58484;51.980;-0.234;2022-08-19T02:59:33;3.03;;;0.63;;
51314;SDS011;58484;51.980;-0.234;2022-08-19T03:01:59;0.88;;;0.65;;
51314;SDS011;58484;51.980;-0.234;2022-08-19T03:04:25;1.83;;;0.90;;
51314;SDS011;58484;51.980;-0.234;2022-08-19T03:06:51;1.13;;;0.85;;
51314;SDS011;58484;51.980;-0.234;2022-08-19T03:09:18;0.65;;;0.60;;
51314;SDS011;58484;51.980;-0.234;2022-08-19T03:11:44;1.58;;;0.60;;
51314;SDS011;58484;51.980;-0.234;2022-08-19T03:14:11;1.05;;;0.60;;
51314;SDS011;58484;51.980;-0.234;2022-08-19T03:16:43;1.38;;;0.60;;
51314;SDS011;58484;51.980;-0.234;2022-08-19T03:19:11;0.95;;;0.73;;
51314;SDS011;58484;51.980;-0.234;2022-08-19T03:21:38;1.40;;;0.70;;
51314;SDS011;58484;51.980;-0.234;2022-08-19T03:24:05;0.65;;;0.65;;
51314;SDS011;58484;51.980;-0.234;2022-08-19T03:26:32;1.10;;;0.80;;
51314;SDS011;58484;51.980;-0.234;2022-08-19T03:29:03;1.33;;;0.70;;
51314;SDS011;58484;51.980;-0.234;2022-08-19T03:31:30;1.45;;;0.90;;
51314;SDS011;58484;51.980;-0.234;2022-08-19T03:33:56;0.88;;;0.80;;
51314;SDS011;58484;51.980;-0.234;2022-08-19T03:36:23;1.73;;;1.02;;
51314;SDS011;58484;51.980;-0.234;2022-08-19T03:38:52;2.33;;;1.00;;
51314;SDS011;58484;51.980;-0.234;2022-08-19T03:41:21;2.70;;;1.15;;
51314;SDS011;58484;51.980;-0.234;2022-08-19T03:43:49;0.68;;;0.68;;
51314;SDS011;58484;51.980;-0.234;2022-08-19T03:46:16;1.67;;;1.20;;
51314;SDS011;58484;51.980;-0.234;2022-08-19T03:48:45;1.50;;;1.25;;
51314;SDS011;58484;51.980;-0.234;2022-08-19T03:51:18;1.90;;;1.13;;
51314;SDS011;58484;51.980;-0.234;2022-08-19T03:53:46;1.25;;;0.70;;
51314;SDS011;58484;51.980;-0.234;2022-08-19T03:56:13;1.50;;;1.02;;
51314;SDS011;58484;51.980;-0.234;2022-08-19T03:58:40;1.25;;;0.98;;
51314;SDS011;58484;51.980;-0.234;2022-08-19T04:01:07;2.75;;;1.30;;
51314;SDS011;58484;51.980;-0.234;2022-08-19T04:03:35;1.55;;;1.10;;
51314;SDS011;58484;51.980;-0.234;2022-08-19T04:06:09;1.60;;;1.48;;
51314;SDS011;58484;51.980;-0.234;2022-08-19T04:08:41;1.83;;;1.08;;
51314;SDS011;58484;51.980;-0.234;2022-08-19T04:11:09;3.03;;;1.98;;
51314;SDS011;58484;51.980;-0.234;2022-08-19T04:13:37;3.35;;;2.20;;
51314;SDS011;58484;51.980;-0.234;2022-08-19T04:16:03;3.05;;;2.03;;
51314;SDS011;58484;51.980;-0.234;2022-08-19T04:18:30;2.58;;;2.28;;
51314;SDS011;58484;51.980;-0.234;2022-08-19T04:20:58;5.95;;;2.28;;
51314;SDS011;58484;51.980;-0.234;2022-08-19T04:23:24;2.92;;;2.40;;
51314;SDS011;58484;51.980;-0.234;2022-08-19T04:25:50;2.38;;;1.98;;
51314;SDS011;58484;51.980;-0.234;2022-08-19T04:28:16;6.30;;;2.60;;
51314;SDS011;58484;51.980;-0.234;2022-08-19T04:30:43;3.00;;;2.53;;
51314;SDS011;58484;51.980;-0.234;2022-08-19T04:33:12;1.80;;;1.67;;
51314;SDS011;58484;51.980;-0.234;2022-08-19T04:35:42;3.20;;;2.10;;
51314;SDS011;58484;51.980;-0.234;2022-08-19T04:38:09;2.40;;;1.80;;
51314;SDS011;58484;51.980;-0.234;2022-08-19T04:40:45;1.40;;;1.30;;
51314;SDS011;58484;51.980;-0.234;2022-08-19T04:43:33;1.73;;;1.10;;
51314;SDS011;58484;51.980;-0.234;2022-08-19T04:46:08;1.27;;;0.93;;
51314;SDS011;58484;51.980;-0.234;2022-08-19T04:48:35;1.33;;;0.90;;
51314;SDS011;58484;51.980;-0.234;2022-08-19T04:51:05;0.80;;;0.80;;
51314;SDS011;58484;51.980;-0.234;2022-08-19T04:53:36;1.17;;;0.80;;
51314;SDS011;58484;51.980;-0.234;2022-08-19T04:56:04;0.77;;;0.70;;
51314;SDS011;58484;51.980;-0.234;2022-08-19T04:58:34;2.47;;;0.80;;
51314;SDS011;58484;51.980;-0.234;2022-08-19T05:01:00;0.95;;;0.73;;
51314;SDS011;58484;51.980;-0.234;2022-08-19T05:03:26;1.48;;;0.60;;
51314;SDS011;58484;51.980;-0.234;2022-08-19T05:05:52;1.13;;;0.60;;
51314;SDS011;58484;51.980;-0.234;2022-08-19T05:08:19;0.63;;;0.60;;
51314;SDS011;58484;51.980;-0.234;2022-08-19T05:10:49;1.63;;;0.60;;
51314;SDS011;58484;51.980;-0.234;2022-08-19T05:13:17;0.88;;;0.70;;
51314;SDS011;58484;51.980;-0.234;2022-08-19T05:15:52;0.43;;;0.43;;
51314;SDS011;58484;51.980;-0.234;2022-08-19T05:18:20;1.17;;;0.60;;
51314;SDS011;58484;51.980;-0.234;2022-08-19T05:21:09;1.98;;;0.55;;
51314;SDS011;58484;51.980;-0.234;2022-08-19T05:23:57;0.43;;;0.38;;
51314;SDS011;58484;51.980;-0.234;2022-08-19T05:26:24;0.50;;;0.47;;
51314;SDS011;58484;51.980;-0.234;2022-08-19T05:28:52;0.55;;;0.55;;
51314;SDS011;58484;51.980;-0.234;2022-08-19T05:31:18;1.17;;;0.60;;
51314;SDS011;58484;51.980;-0.234;2022-08-19T05:33:44;0.57;;;0.57;;
51314;SDS011;58484;51.980;-0.234;2022-08-19T05:36:10;0.60;;;0.50;;
51314;SDS011;58484;51.980;-0.234;2022-08-19T05:38:36;1.25;;;0.80;;
51314;SDS011;58484;51.980;-0.234;2022-08-19T05:41:06;2.15;;;0.63;;
51314;SDS011;58484;51.980;-0.234;2022-08-19T05:43:36;0.82;;;0.65;;
51314;SDS011;58484;51.980;-0.234;2022-08-19T05:46:04;2.60;;;0.73;;
51314;SDS011;58484;51.980;-0.234;2022-08-19T05:48:32;0.55;;;0.50;;
51314;SDS011;58484;51.980;-0.234;2022-08-19T05:51:02;0.80;;;0.70;;
51314;SDS011;58484;51.980;-0.234;2022-08-19T05:53:31;1.17;;;0.70;;
51314;SDS011;58484;51.980;-0.234;2022-08-19T05:56:03;0.95;;;0.60;;
51314;SDS011;58484;51.980;-0.234;2022-08-19T05:58:30;1.90;;;0.52;;
51314;SDS011;58484;51.980;-0.234;2022-08-19T06:00:57;0.60;;;0.60;;
51314;SDS011;58484;51.980;-0.234;2022-08-19T06:03:23;1.27;;;0.70;;
51314;SDS011;58484;51.980;-0.234;2022-08-19T06:05:49;0.70;;;0.50;;
51314;SDS011;58484;51.980;-0.234;2022-08-19T06:08:15;1.95;;;0.52;;
51314;SDS011;58484;51.980;-0.234;2022-08-19T06:10:43;1.08;;;0.70;;
51314;SDS011;58484;51.980;-0.234;2022-08-19T06:13:09;0.95;;;0.60;;
51314;SDS011;58484;51.980;-0.234;2022-08-19T06:15:34;1.25;;;0.50;;
51314;SDS011;58484;51.980;-0.234;2022-08-19T06:18:00;5.95;;;0.60;;
51314;SDS011;58484;51.980;-0.234;2022-08-19T06:20:26;1.88;;;0.88;;
51314;SDS011;58484;51.980;-0.234;2022-08-19T06:22:52;1.25;;;0.68;;
51314;SDS011;58484;51.980;-0.234;2022-08-19T06:25:18;1.92;;;0.80;;
51314;SDS011;58484;51.980;-0.234;2022-08-19T06:27:45;0.93;;;0.55;;
51314;SDS011;58484;51.980;-0.234;2022-08-19T06:30:11;0.57;;;0.50;;
51314;SDS011;58484;51.980;-0.234;2022-08-19T06:32:37;1.55;;;0.60;;
51314;SDS011;58484;51.980;-0.234;2022-08-19T06:35:03;1.75;;;0.60;;
51314;SDS011;58484;51.980;-0.234;2022-08-19T06:37:30;1.13;;;0.82;;
51314;SDS011;58484;51.980;-0.234;2022-08-19T06:39:56;0.70;;;0.70;;
51314;SDS011;58484;51.980;-0.234;2022-08-19T06:42:21;1.30;;;0.70;;
51314;SDS011;58484;51.980;-0.234;2022-08-19T06:44:47;1.63;;;0.60;;
51314;SDS011;58484;51.980;-0.234;2022-08-19T06:47:16;1.48;;;0.70;;
51314;SDS011;58484;51.980;-0.234;2022-08-19T06:49:44;1.75;;;0.70;;
51314;SDS011;58484;51.980;-0.234;2022-08-19T06:52:10;3.42;;;0.90;;
51314;SDS011;58484;51.980;-0.234;2022-08-19T06:54:37;6.72;;;3.70;;
51314;SDS011;58484;51.980;-0.234;2022-08-19T06:57:04;7.10;;;3.15;;
51314;SDS011;58484;51.980;-0.234;2022-08-19T06:59:31;1.17;;;1.05;;
51314;SDS011;58484;51.980;-0.234;2022-08-19T07:01:59;1.70;;;1.00;;
51314;SDS011;58484;51.980;-0.234;2022-08-19T07:04:28;1.40;;;1.10;;
51314;SDS011;58484;51.980;-0.234;2022-08-19T07:06:58;1.23;;;1.00;;
51314;SDS011;58484;51.980;-0.234;2022-08-19T07:09:28;1.67;;;0.80;;
51314;SDS011;58484;51.980;-0.234;2022-08-19T07:11:54;1.85;;;1.10;;
51314;SDS011;58484;51.980;-0.234;2022-08-19T07:14:22;1.95;;;0.90;;
51314;SDS011;58484;51.980;-0.234;2022-08-19T07:16:50;2.88;;;1.10;;
51314;SDS011;58484;51.980;-0.234;2022-08-19T07:19:19;2.78;;;1.08;;
51314;SDS011;58484;51.980;-0.234;2022-08-19T07:21:48;0.70;;;0.65;;
51314;SDS011;58484;51.980;-0.234;2022-08-19T07:24:18;1.70;;;1.02;;
51314;SDS011;58484;51.980;-0.234;2022-08-19T07:26:45;2.70;;;1.20;;
51314;SDS011;58484;51.980;-0.234;2022-08-19T07:29:11;4.68;;;1.02;;
51314;SDS011;58484;51.980;-0.234;2022-08-19T07:31:38;1.48;;;1.00;;
51314;SDS011;58484;51.980;-0.234;2022-08-19T07:34:04;3.03;;;1.05;;
51314;SDS011;58484;51.980;-0.234;2022-08-19T07:36:32;2.95;;;1.42;;
51314;SDS011;58484;51.980;-0.234;2022-08-19T07:39:02;2.00;;;1.15;;
51314;SDS011;58484;51.980;-0.234;2022-08-19T07:41:31;2.38;;;1.05;;
51314;SDS011;58484;51.980;-0.234;2022-08-19T07:43:58;2.63;;;1.00;;
51314;SDS011;58484;51.980;-0.234;2022-08-19T07:46:30;1.33;;;0.70;;
51314;SDS011;58484;51.980;-0.234;2022-08-19T07:48:56;1.50;;;1.33;;
51314;SDS011;58484;51.980;-0.234;2022-08-19T07:51:23;5.07;;;1.60;;
51314;SDS011;58484;51.980;-0.234;2022-08-19T07:53:49;2.28;;;0.90;;
51314;SDS011;58484;51.980;-0.234;2022-08-19T07:56:16;1.58;;;0.88;;
51314;SDS011;58484;51.980;-0.234;2022-08-19T07:58:44;1.90;;;1.00;;
51314;SDS011;58484;51.980;-0.234;2022-08-19T08:01:13;1.45;;;0.80;;
51314;SDS011;58484;51.980;-0.234;2022-08-19T08:03:43;2.45;;;0.82;;
51314;SDS011;58484;51.980;-0.234;2022-08-19T08:06:29;1.48;;;0.70;;
51314;SDS011;58484;51.980;-0.234;2022-08-19T08:09:15;1.55;;;0.60;;
51314;SDS011;58484;51.980;-0.234;2022-08-19T08:11:48;1.23;;;0.73;;
51314;SDS011;58484;51.980;-0.234;2022-08-19T08:14:18;2.08;;;0.60;;
51314;SDS011;58484;51.980;-0.234;2022-08-19T08:16:47;2.83;;;0.80;;
51314;SDS011;58484;51.980;-0.234;2022-08-19T08:19:17;1.70;;;0.80;;
51314;SDS011;58484;51.980;-0.234;2022-08-19T08:21:44;1.45;;;0.73;;
51314;SDS011;58484;51.980;-0.234;2022-08-19T08:24:10;1.67;;;0.73;;
51314;SDS011;58484;51.980;-0.234;2022-08-19T08:26:37;0.82;;;0.75;;
51314;SDS011;58484;51.980;-0.234;2022-08-19T08:29:04;1.23;;;0.80;;
51314;SDS011;58484;51.980;-0.234;2022-08-19T08:31:32;2.63;;;1.10;;
51314;SDS011;58484;51.980;-0.234;2022-08-19T08:33:59;1.60;;;0.80;;
51314;SDS011;58484;51.980;-0.234;2022-08-19T08:36:25;3.67;;;0.63;;
51314;SDS011;58484;51.980;-0.234;2022-08-19T08:38:52;2.78;;;0.65;;
51314;SDS011;58484;51.980;-0.234;2022-08-19T08:41:31;3.72;;;0.70;;
51314;SDS011;58484;51.980;-0.234;2022-08-19T08:44:22;2.00;;;0.82;;
51314;SDS011;58484;51.980;-0.234;2022-08-19T08:46:56;2.25;;;0.70;;
51314;SDS011;58484;51.980;-0.234;2022-08-19T08:49:29;1.92;;;0.68;;
51314;SDS011;58484;51.980;-0.234;2022-08-19T08:52:06;2.53;;;0.70;;
51314;SDS011;58484;51.980;-0.234;2022-08-19T08:54:39;2.75;;;0.80;;
51314;SDS011;58484;51.980;-0.234;2022-08-19T08:57:12;1.55;;;1.10;;
51314;SDS011;58484;51.980;-0.234;2022-08-19T08:59:43;3.35;;;0.75;;
51314;SDS011;58484;51.980;-0.234;2022-08-19T09:02:16;1.92;;;0.80;;
51314;SDS011;58484;51.980;-0.234;2022-08-19T09:04:43;1.90;;;0.70;;
51314;SDS011;58484;51.980;-0.234;2022-08-19T09:07:13;2.72;;;0.82;;
51314;SDS011;58484;51.980;-0.234;2022-08-19T09:09:50;2.10;;;0.77;;
51314;SDS011;58484;51.980;-0.234;2022-08-19T09:15:15;2.38;;;0.60;;
51314;SDS011;58484;51.980;-0.234;2022-08-19T09:17:43;1.10;;;0.63;;
51314;SDS011;58484;51.980;-0.234;2022-08-19T09:20:18;2.85;;;0.82;;
51314;SDS011;58484;51.980;-0.234;2022-08-19T09:22:46;1.45;;;0.73;;
51314;SDS011;58484;51.980;-0.234;2022-08-19T09:25:15;2.47;;;0.80;;
51314;SDS011;58484;51.980;-0.234;2022-08-19T09:27:47;5.32;;;0.90;;
51314;SDS011;58484;51.980;-0.234;2022-08-19T09:30:15;3.00;;;1.00;;
51314;SDS011;58484;51.980;-0.234;2022-08-19T09:32:44;3.00;;;0.85;;
51314;SDS011;58484;51.980;-0.234;2022-08-19T09:35:11;3.10;;;0.80;;
51314;SDS011;58484;51.980;-0.234;2022-08-19T09:37:38;3.65;;;1.20;;
51314;SDS011;58484;51.980;-0.234;2022-08-19T09:40:04;2.80;;;0.80;;
51314;SDS011;58484;51.980;-0.234;2022-08-19T09:42:32;1.65;;;0.60;;
51314;SDS011;58484;51.980;-0.234;2022-08-19T09:44:58;3.30;;;1.10;;
51314;SDS011;58484;51.980;-0.234;2022-08-19T09:47:24;1.83;;;0.98;;
51314;SDS011;58484;51.980;-0.234;2022-08-19T09:49:50;2.05;;;1.20;;
51314;SDS011;58484;51.980;-0.234;2022-08-19T09:52:16;4.78;;;1.15;;
51314;SDS011;58484;51.980;-0.234;2022-08-19T09:54:43;2.70;;;1.00;;
51314;SDS011;58484;51.980;-0.234;2022-08-19T09:57:09;2.22;;;1.00;;
51314;SDS011;58484;51.980;-0.234;2022-08-19T09:59:34;2.47;;;1.15;;
51314;SDS011;58484;51.980;-0.234;2022-08-19T10:02:00;4.70;;;1.20;;
51314;SDS011;58484;51.980;-0.234;2022-08-19T10:04:26;5.82;;;1.50;;
51314;SDS011;58484;51.980;-0.234;2022-08-19T10:07:12;4.05;;;1.30;;
51314;SDS011;58484;51.980;-0.234;2022-08-19T10:09:38;3.45;;;1.17;;
51314;SDS011;58484;51.980;-0.234;2022-08-19T10:12:06;3.40;;;1.40;;
51314;SDS011;58484;51.980;-0.234;2022-08-19T10:14:33;5.45;;;1.38;;
51314;SDS011;58484;51.980;-0.234;2022-08-19T10:17:00;2.95;;;1.20;;
51314;SDS011;58484;51.980;-0.234;2022-08-19T10:19:27;6.15;;;1.48;;
51314;SDS011;58484;51.980;-0.234;2022-08-19T10:21:57;3.97;;;1.60;;
51314;SDS011;58484;51.980;-0.234;2022-08-19T10:24:23;6.18;;;1.65;;
51314;SDS011;58484;51.980;-0.234;2022-08-19T10:26:50;7.20;;;1.50;;
51314;SDS011;58484;51.980;-0.234;2022-08-19T10:29:16;3.80;;;1.38;;
51314;SDS011;58484;51.980;-0.234;2022-08-19T10:31:42;7.85;;;1.55;;
51314;SDS011;58484;51.980;-0.234;2022-08-19T10:34:08;4.50;;;1.70;;
51314;SDS011;58484;51.980;-0.234;2022-08-19T10:36:35;7.10;;;1.70;;
51314;SDS011;58484;51.980;-0.234;2022-08-19T10:39:04;4.38;;;1.27;;
51314;SDS011;58484;51.980;-0.234;2022-08-19T10:41:35;5.15;;;1.55;;
51314;SDS011;58484;51.980;-0.234;2022-08-19T10:44:04;6.75;;;1.90;;
51314;SDS011;58484;51.980;-0.234;2022-08-19T10:46:32;4.53;;;1.80;;
51314;SDS011;58484;51.980;-0.234;2022-08-19T10:49:00;4.78;;;1.73;;
51314;SDS011;58484;51.980;-0.234;2022-08-19T10:51:29;3.78;;;1.90;;
51314;SDS011;58484;51.980;-0.234;2022-08-19T10:54:15;5.95;;;1.65;;
51314;SDS011;58484;51.980;-0.234;2022-08-19T10:56:41;8.30;;;1.83;;
51314;SDS011;58484;51.980;-0.234;2022-08-19T10:59:24;4.15;;;1.80;;
51314;SDS011;58484;51.980;-0.234;2022-08-19T11:01:53;5.75;;;1.50;;
51314;SDS011;58484;51.980;-0.234;2022-08-19T11:04:23;7.05;;;1.77;;
51314;SDS011;58484;51.980;-0.234;2022-08-19T11:06:49;4.47;;;1.65;;
51314;SDS011;58484;51.980;-0.234;2022-08-19T11:09:20;5.55;;;1.70;;
51314;SDS011;58484;51.980;-0.234;2022-08-19T11:11:49;5.90;;;1.90;;
51314;SDS011;58484;51.980;-0.234;2022-08-19T11:14:17;3.35;;;1.60;;
51314;SDS011;58484;51.980;-0.234;2022-08-19T11:16:44;4.70;;;1.85;;
51314;SDS011;58484;51.980;-0.234;2022-08-19T11:19:11;5.15;;;1.95;;
51314;SDS011;58484;51.980;-0.234;2022-08-19T11:21:40;5.78;;;1.80;;
51314;SDS011;58484;51.980;-0.234;2022-08-19T11:24:09;4.20;;;1.83;;
51314;SDS011;58484;51.980;-0.234;2022-08-19T11:26:38;5.53;;;2.03;;
51314;SDS011;58484;51.980;-0.234;2022-08-19T11:29:06;7.03;;;2.15;;
51314;SDS011;58484;51.980;-0.234;2022-08-19T11:31:36;3.17;;;1.80;;
51314;SDS011;58484;51.980;-0.234;2022-08-19T11:34:05;4.65;;;1.80;;
51314;SDS011;58484;51.980;-0.234;2022-08-19T11:36:33;5.03;;;1.98;;
51314;SDS011;58484;51.980;-0.234;2022-08-19T11:39:03;5.05;;;1.73;;
51314;SDS011;58484;51.980;-0.234;2022-08-19T11:41:30;5.47;;;2.17;;
51314;SDS011;58484;51.980;-0.234;2022-08-19T11:43:56;15.35;;;1.90;;
51314;SDS011;58484;51.980;-0.234;2022-08-19T11:46:24;5.65;;;2.33;;
51314;SDS011;58484;51.980;-0.234;2022-08-19T11:48:51;6.68;;;2.00;;
51314;SDS011;58484;51.980;-0.234;2022-08-19T11:51:21;3.60;;;1.45;;
51314;SDS011;58484;51.980;-0.234;2022-08-19T11:53:49;7.27;;;1.60;;
51314;SDS011;58484;51.980;-0.234;2022-08-19T11:56:16;5.97;;;2.00;;
51314;SDS011;58484;51.980;-0.234;2022-08-19T11:58:43;4.80;;;1.58;;
51314;SDS011;58484;51.980;-0.234;2022-08-19T12:01:11;3.53;;;1.95;;
51314;SDS011;58484;51.980;-0.234;2022-08-19T12:03:43;4.03;;;1.90;;
51314;SDS011;58484;51.980;-0.234;2022-08-19T12:06:11;4.82;;;1.48;;
51314;SDS011;58484;51.980;-0.234;2022-08-19T12:08:40;7.72;;;1.45;;
51314;SDS011;58484;51.980;-0.234;2022-08-19T12:11:06;6.68;;;1.92;;
51314;SDS011;58484;51.980;-0.234;2022-08-19T12:13:33;4.18;;;1.42;;
51314;SDS011;58484;51.980;-0.234;2022-08-19T12:16:00;5.18;;;1.88;;
51314;SDS011;58484;51.980;-0.234;2022-08-19T12:18:34;7.93;;;2.10;;
51314;SDS011;58484;51.980;-0.234;2022-08-19T12:21:00;7.07;;;1.83;;
51314;SDS011;58484;51.980;-0.234;2022-08-19T12:23:26;7.15;;;2.22;;
51314;SDS011;58484;51.980;-0.234;2022-08-19T12:25:52;6.10;;;2.03;;
51314;SDS011;58484;51.980;-0.234;2022-08-19T12:28:18;4.93;;;1.80;;
51314;SDS011;58484;51.980;-0.234;2022-08-19T12:30:45;7.80;;;1.77;;
51314;SDS011;58484;51.980;-0.234;2022-08-19T12:33:11;6.47;;;1.90;;
51314;SDS011;58484;51.980;-0.234;2022-08-19T12:35:42;3.63;;;1.83;;
51314;SDS011;58484;51.980;-0.234;2022-08-19T12:38:10;6.40;;;1.98;;
51314;SDS011;58484;51.980;-0.234;2022-08-19T12:40:37;4.18;;;1.48;;
51314;SDS011;58484;51.980;-0.234;2022-08-19T12:43:05;5.82;;;1.80;;
51314;SDS011;58484;51.980;-0.234;2022-08-19T12:45:33;6.05;;;1.70;;
51314;SDS011;58484;51.980;-0.234;2022-08-19T12:47:59;8.15;;;1.98;;
51314;SDS011;58484;51.980;-0.234;2022-08-19T12:50:25;7.68;;;1.70;;
51314;SDS011;58484;51.980;-0.234;2022-08-19T12:52:52;5.25;;;1.60;;
51314;SDS011;58484;51.980;-0.234;2022-08-19T12:55:18;4.22;;;1.88;;
51314;SDS011;58484;51.980;-0.234;2022-08-19T12:57:44;7.82;;;2.13;;
51314;SDS011;58484;51.980;-0.234;2022-08-19T13:00:12;6.63;;;2.30;;
51314;SDS011;58484;51.980;-0.234;2022-08-19T13:02:42;7.68;;;1.77;;
51314;SDS011;58484;51.980;-0.234;2022-08-19T13:05:12;7.10;;;1.90;;
51314;SDS011;58484;51.980;-0.234;2022-08-19T13:07:41;7.47;;;1.70;;
51314;SDS011;58484;51.980;-0.234;2022-08-19T13:10:09;6.00;;;1.85;;
51314;SDS011;58484;51.980;-0.234;2022-08-19T13:12:38;5.00;;;1.63;;
51314;SDS011;58484;51.980;-0.234;2022-08-19T13:15:04;5.78;;;1.88;;
51314;SDS011;58484;51.980;-0.234;2022-08-19T13:17:30;4.28;;;1.92;;
51314;SDS011;58484;51.980;-0.234;2022-08-19T13:19:59;3.97;;;1.60;;
51314;SDS011;58484;51.980;-0.234;2022-08-19T13:22:24;5.82;;;1.80;;
51314;SDS011;58484;51.980;-0.234;2022-08-19T13:24:50;5.90;;;2.03;;
51314;SDS011;58484;51.980;-0.234;2022-08-19T13:27:16;4.80;;;1.88;;
51314;SDS011;58484;51.980;-0.234;2022-08-19T13:29:42;5.95;;;1.48;;
51314;SDS011;58484;51.980;-0.234;2022-08-19T13:32:28;6.40;;;1.60;;
51314;SDS011;58484;51.980;-0.234;2022-08-19T13:35:16;8.32;;;2.10;;
51314;SDS011;58484;51.980;-0.234;2022-08-19T13:37:43;4.25;;;2.33;;
51314;SDS011;58484;51.980;-0.234;2022-08-19T13:40:10;6.63;;;2.00;;
51314;SDS011;58484;51.980;-0.234;2022-08-19T13:42:41;4.50;;;2.05;;
51314;SDS011;58484;51.980;-0.234;2022-08-19T13:45:09;6.10;;;1.88;;
51314;SDS011;58484;51.980;-0.234;2022-08-19T13:47:35;6.50;;;1.80;;
51314;SDS011;58484;51.980;-0.234;2022-08-19T13:52:36;6.45;;;1.83;;
51314;SDS011;58484;51.980;-0.234;2022-08-19T13:55:03;5.85;;;1.88;;
51314;SDS011;58484;51.980;-0.234;2022-08-19T13:57:30;5.63;;;1.63;;
51314;SDS011;58484;51.980;-0.234;2022-08-19T13:59:57;5.03;;;1.65;;
51314;SDS011;58484;51.980;-0.234;2022-08-19T14:02:23;7.18;;;2.05;;
51314;SDS011;58484;51.980;-0.234;2022-08-19T14:04:50;5.07;;;1.40;;
51314;SDS011;58484;51.980;-0.234;2022-08-19T14:07:15;4.93;;;2.08;;
51314;SDS011;58484;51.980;-0.234;2022-08-19T14:09:41;14.15;;;1.88;;
51314;SDS011;58484;51.980;-0.234;2022-08-19T14:12:07;11.50;;;1.95;;
51314;SDS011;58484;51.980;-0.234;2022-08-19T14:14:37;3.92;;;1.60;;
51314;SDS011;58484;51.980;-0.234;2022-08-19T14:17:06;6.53;;;1.95;;
51314;SDS011;58484;51.980;-0.234;2022-08-19T14:19:32;6.43;;;1.95;;
51314;SDS011;58484;51.980;-0.234;2022-08-19T14:21:58;6.78;;;1.65;;
51314;SDS011;58484;51.980;-0.234;2022-08-19T14:24:23;4.50;;;2.03;;
51314;SDS011;58484;51.980;-0.234;2022-08-19T14:26:49;8.05;;;2.00;;
51314;SDS011;58484;51.980;-0.234;2022-08-19T14:29:15;7.05;;;1.80;;
51314;SDS011;58484;51.980;-0.234;2022-08-19T14:31:41;6.05;;;1.95;;
51314;SDS011;58484;51.980;-0.234;2022-08-19T14:34:08;6.22;;;1.95;;
51314;SDS011;58484;51.980;-0.234;2022-08-19T14:36:35;6.55;;;2.25;;
51314;SDS011;58484;51.980;-0.234;2022-08-19T14:39:02;4.97;;;1.77;;
51314;SDS011;58484;51.980;-0.234;2022-08-19T14:41:29;4.80;;;1.65;;
51314;SDS011;58484;51.980;-0.234;2022-08-19T14:43:56;2.83;;;1.38;;